Time,TemperatureF,DewpointF,PressureIn,WindDirection,WindDirectionDegrees,WindSpeedMPH,WindSpeedGustMPH,Humidity,HourlyPrecipIn,Conditions,Clouds,dailyrainin,SoftwareType,DateUTC
2013-08-02 01:52:00,65.0,65.0,-100.00,North,355,0.0,0.0,99,-99.99,,,-99.99,,2013-08-02 06:52:00,
2013-08-02 02:12:00,62.0,62.0,-100.00,North,355,0.0,0.0,99,-99.99,,,-99.99,,2013-08-02 07:12:00,
2013-08-02 02:22:00,62.0,62.0,-100.00,North,355,0.0,0.0,99,-99.99,,,-99.99,,2013-08-02 07:22:00,
2013-08-02 02:33:00,62.0,62.0,-100.00,North,355,0.0,0.0,99,-99.99,,,-99.99,,2013-08-02 07:33:00,
2013-08-02 02:44:00,62.0,62.0,-100.00,North,355,0.0,0.0,99,-99.99,,,-99.99,,2013-08-02 07:44:00,
2013-08-02 02:53:00,62.0,62.0,-100.00,North,355,0.0,0.0,99,-99.99,,,-99.99,,2013-08-02 07:53:00,
2013-08-02 04:33:00,62.0,62.0,-100.00,North,355,0.0,0.0,99,-99.99,,,-99.99,,2013-08-02 09:33:00,
2013-08-02 04:43:00,62.0,62.0,-100.00,North,355,0.0,0.0,99,-99.99,,,-99.99,,2013-08-02 09:43:00,
2013-08-02 04:53:00,62.0,62.0,-100.00,North,355,0.0,0.0,99,-99.99,,,-99.99,,2013-08-02 09:53:00,
2013-08-02 05:12:00,63.0,63.0,-100.00,North,355,0.0,0.0,99,-99.99,,,-99.99,,2013-08-02 10:12:00,
2013-08-02 05:33:00,63.0,63.0,-100.00,North,355,0.0,0.0,99,-99.99,,,-99.99,,2013-08-02 10:33:00,
2013-08-02 05:43:00,63.0,63.0,-100.00,North,355,0.0,0.0,99,-99.99,,,-99.99,,2013-08-02 10:43:00,
2013-08-02 05:52:00,63.0,63.0,-100.00,North,355,0.0,0.0,99,-99.99,,,-99.99,,2013-08-02 10:52:00,
2013-08-02 06:12:00,63.0,62.0,-100.00,North,355,0.0,0.0,99,-99.99,,,-99.99,,2013-08-02 11:12:00,
2013-08-02 06:22:00,63.0,62.0,-100.00,North,355,0.0,0.0,99,-99.99,,,-99.99,,2013-08-02 11:22:00,
2013-08-02 06:32:00,63.0,62.0,-100.00,North,355,0.0,0.0,99,-99.99,,,-99.99,,2013-08-02 11:32:00,
2013-08-02 06:42:00,63.0,62.0,-100.00,North,355,0.0,0.0,99,-99.99,,,-99.99,,2013-08-02 11:42:00,
2013-08-02 06:52:00,63.0,62.0,-100.00,North,355,0.0,0.0,99,-99.99,,,-99.99,,2013-08-02 11:52:00,
2013-08-02 09:12:00,69.0,69.0,-100.00,North,355,0.0,0.0,99,-99.99,,,-99.99,,2013-08-02 14:12:00,
2013-08-02 09:32:00,71.0,71.0,-100.00,North,355,0.0,0.0,99,-99.99,,,-99.99,,2013-08-02 14:32:00,
2013-08-02 09:43:00,71.0,71.0,-100.00,North,355,0.0,0.0,99,-99.99,,,-99.99,,2013-08-02 14:43:00,
2013-08-02 09:53:00,71.0,71.0,-100.00,North,355,0.0,0.0,99,-99.99,,,-99.99,,2013-08-02 14:53:00,
2013-08-02 12:35:00,78.0,74.0,-100.00,North,355,0.0,0.0,89,-99.99,,,-99.99,,2013-08-02 17:35:00,
2013-08-02 12:43:00,78.0,74.0,-100.00,North,355,0.0,0.0,89,-99.99,,,-99.99,,2013-08-02 17:43:00,
2013-08-02 13:12:00,80.0,71.0,-100.00,North,355,0.0,0.0,73,-99.99,,,-99.99,,2013-08-02 18:12:00,
2013-08-02 13:32:00,79.0,68.0,-100.00,North,355,0.0,0.0,68,-99.99,,,-99.99,,2013-08-02 18:32:00,
2013-08-02 13:43:00,79.0,68.0,-100.00,North,355,0.0,0.0,68,-99.99,,,-99.99,,2013-08-02 18:43:00,
2013-08-02 13:52:00,79.0,68.0,-100.00,North,355,0.0,0.0,68,-99.99,,,-99.99,,2013-08-02 18:52:00,
2013-08-02 17:32:00,79.0,65.0,-100.00,North,355,0.0,0.0,62,-99.99,,,-99.99,,2013-08-02 22:32:00,
2013-08-02 17:43:00,79.0,65.0,-100.00,North,355,0.0,0.0,62,-99.99,,,-99.99,,2013-08-02 22:43:00,
2013-08-02 17:52:00,79.0,65.0,-100.00,North,355,0.0,0.0,62,-99.99,,,-99.99,,2013-08-02 22:52:00,
2013-08-02 18:12:00,80.0,64.0,-100.00,North,355,0.0,0.0,59,-99.99,,,-99.99,,2013-08-02 23:12:00,
2013-08-02 18:22:00,80.0,64.0,-100.00,North,355,0.0,0.0,59,-99.99,,,-99.99,,2013-08-02 23:22:00,
2013-08-02 18:32:00,80.0,64.0,-100.00,North,355,0.0,0.0,59,-99.99,,,-99.99,,2013-08-02 23:32:00,
2013-08-02 18:43:00,80.0,64.0,-100.00,North,355,0.0,0.0,59,-99.99,,,-99.99,,2013-08-02 23:43:00,
2013-08-02 18:53:00,80.0,64.0,-100.00,North,355,0.0,0.0,59,-99.99,,,-99.99,,2013-08-02 23:53:00,
2013-08-02 19:12:00,78.0,65.0,-100.00,North,355,0.0,0.0,66,-99.99,,,-99.99,,2013-08-03 00:12:00,
2013-08-02 19:33:00,77.0,66.0,-100.00,North,355,0.0,0.0,70,-99.99,,,-99.99,,2013-08-03 00:33:00,
2013-08-02 19:43:00,77.0,66.0,-100.00,North,355,0.0,0.0,70,-99.99,,,-99.99,,2013-08-03 00:43:00,
2013-08-02 19:52:00,77.0,66.0,-100.00,North,355,0.0,0.0,70,-99.99,,,-99.99,,2013-08-03 00:52:00,